Nearby METAR Reports

 

YSCB - Canberra (civ/Mi, Australia
Distance from station: NNE 21km
Updated: 24/05/2019 13:00
Overcast
Overcast
 Wind from NNW
Wind: NNW 7 km/h
Temperature: 14°C
Dew Point: 7°C
Humidity: 63%
Barometer: 1023 hPa
Clouds: Overcast
Visibility: 10 km
Cloud details: Overcast 3810 m
2019/05/24 03:00 YSCB 240300Z AUTO 34004KT 9999 // OVC125 14/07 Q1023 NOSIG
YCOM - Cooma Snowy Mtns, Australia
Distance from station: S 94km
Updated: 24/05/2019 13:00
Clear
Clear
 Wind from WNW
Wind: WNW 19 km/h
Temperature: 17°C
Dew Point: 2°C
Humidity: 37%
Barometer: 1021 hPa
Clouds: Clear
Visibility: 10 km
2019/05/24 03:00 YCOM 240300Z AUTO 30010KT 9999 // NCD 17/02 Q1021
 
YSNW - Nowra (aus-Navy), Australia
Distance from station: ENE 140km
Updated: 24/05/2019 13:00
Clear
Clear
 Wind from WNW
Wind: WNW 20 km/h
Temperature: 24°C
Dew Point: 1°C
Humidity: 22%
Barometer: 1019 hPa
Summary: Clear
Visibility: greater than 10 km
2019/05/24 03:00 YSNW 240300Z 29011KT CAVOK 24/01 Q1019 NOSIG
YSWG - Wagga Wagga(Cv/M, Australia
Distance from station: WNW 153km
Updated: 24/05/2019 13:00
Overcast
Overcast
 Wind from E
Wind: E 17 km/h
Temperature: 15°C
Dew Point: 9°C
Humidity: 68%
Barometer: 1022 hPa
Clouds: Overcast
Visibility: 10 km
Cloud details: Overcast 2164 m
Overcast 2621 m
2019/05/24 03:00 YSWG 240300Z AUTO 09009KT 9999 // OVC071 OVC086 15/09 Q1022
 
YMER - Merimbula Arpt, Australia
Distance from station: SSE 177km
Updated: 24/05/2019 13:00
Clear
Clear
 Wind from E
Wind: E 6 km/h
Temperature: 20°C
Dew Point: 10°C
Humidity: 53%
Barometer: 1018 hPa
Clouds: Clear
Visibility: 10 km
2019/05/24 03:00 YMER 240300Z AUTO 10003KT 9999 // NCD 20/10 Q1018
YMAY - Albury Airport, Australia
Distance from station: WSW 207km
Updated: 24/05/2019 13:00
Clear
Clear
 Wind from E
Wind: E 9 km/h
Clouds: Clear
Visibility: 10 km
2019/05/24 03:00 YMAY 240300Z AUTO 09005KT 9999 // NCD 15/// Q1021
 
YNAR - Narrandera, Australia
Distance from station: WNW 250km
Updated: 24/05/2019 13:00
Overcast
Overcast
 Wind from NNW
Wind: NNW 19 km/h
Temperature: 21°C
Dew Point: 7°C
Humidity: 40%
Barometer: 1021 hPa
Clouds: Overcast
Visibility: 10 km
Cloud details: Overcast 2469 m
2019/05/24 03:00 YNAR 240300Z AUTO 33010KT 9999 // OVC081 21/07 Q1021
YSSY - Sydney Intl Airp, Australia
Distance from station: NE 253km
Updated: 24/05/2019 13:30
Clear
Clear
 Wind from WNW
Wind: WNW 13 km/h
Temperature: 25°C
Dew Point: 6°C
Humidity: 30%
Barometer: 1020 hPa
Summary: Clear
Visibility: greater than 10 km
2019/05/24 03:30 YSSY 240330Z 30007KT CAVOK 25/06 Q1020 NOSIG
 
YSRI - Richmond (aus-Af, Australia
Distance from station: NE 257km
Updated: 24/05/2019 13:30
Clear
Clear
 Wind from E
Wind: E 9 km/h
Temperature: 23°C
Dew Point: 12°C
Humidity: 50%
Barometer: 1020 hPa
Clouds: Clear
Visibility: 10 km
2019/05/24 03:30 YSRI 240330Z AUTO 08005KT 9999 // NCD 23/12 Q1020 RF00.0/000.0
YWGT - Wangaratta Arp, Australia
Distance from station: WSW 274km
Updated: 24/05/2019 13:00
Partly cloudy
Partly cloudy
 Wind from ENE
Wind: ENE 9 km/h
Temperature: 17°C
Dew Point: 8°C
Humidity: 56%
Barometer: 1021 hPa
Clouds: Partly cloudy
Visibility: 10 km
Cloud details: Partly cloudy 3658 m
2019/05/24 03:00 YWGT 240300Z AUTO 07005KT 030V090 9999 // SCT120 17/08 Q1021
 
YGTH - Griffith Arpt, Australia
Distance from station: WNW 308km
Updated: 24/05/2019 13:00
Mostly cloudy
Mostly cloudy
 Wind from NNW
Wind: NNW 20 km/h
Temperature: 21°C
Dew Point: 9°C
Humidity: 46%
Barometer: 1021 hPa
Clouds: Mostly cloudy
Visibility: 10 km
Cloud details: Mostly cloudy 2560 m
2019/05/24 03:00 YGTH 240300Z AUTO 33011KT 9999 // BKN084 21/09 Q1021